createdAt,value
2024-04-06T00:00:04.024Z,0.00
2024-04-06T00:01:04.030Z,0.00
2024-04-06T00:02:03.995Z,0.00
2024-04-06T00:03:03.990Z,0.00
2024-04-06T00:04:03.964Z,0.00
2024-04-06T00:05:03.956Z,0.00
2024-04-06T00:06:03.956Z,0.00
2024-04-06T00:07:03.933Z,0.00
2024-04-06T00:08:12.846Z,0.00
2024-04-06T00:09:04.915Z,0.00
2024-04-06T00:10:03.934Z,0.00
2024-04-06T00:11:03.885Z,0.00
2024-04-06T00:12:03.883Z,0.00
2024-04-06T00:13:03.872Z,0.00
2024-04-06T00:14:03.897Z,0.00
2024-04-06T00:15:03.879Z,0.00
2024-04-06T00:16:03.844Z,0.00
2024-04-06T00:17:03.826Z,0.00
2024-04-06T00:18:03.811Z,0.00
2024-04-06T00:19:03.810Z,0.00
2024-04-06T00:20:03.819Z,0.00
2024-04-06T00:21:03.766Z,0.00
2024-04-06T00:22:03.760Z,0.00
2024-04-06T00:23:03.756Z,0.00
2024-04-06T00:24:03.747Z,0.00
2024-04-06T00:25:03.743Z,0.00
2024-04-06T00:26:03.742Z,0.00
2024-04-06T00:27:03.712Z,0.00
2024-04-06T00:28:03.698Z,0.00
2024-04-06T00:29:03.695Z,0.00
2024-04-06T00:30:03.673Z,0.00
2024-04-06T00:31:03.684Z,0.00
2024-04-06T00:32:03.676Z,0.00
2024-04-06T00:33:03.645Z,0.00
2024-04-06T00:34:03.635Z,0.00
2024-04-06T00:35:03.624Z,0.00
2024-04-06T00:36:03.623Z,0.00
2024-04-06T00:37:03.613Z,0.00
2024-04-06T00:38:03.608Z,0.00
2024-04-06T00:39:03.613Z,0.00
2024-04-06T00:40:03.565Z,0.00
2024-04-06T00:41:03.561Z,0.00
2024-04-06T00:42:03.560Z,0.00
2024-04-06T00:43:03.532Z,0.00
2024-04-06T00:44:04.007Z,0.00
2024-04-06T00:45:03.532Z,0.00
2024-04-06T00:46:03.502Z,0.00
2024-04-06T00:47:03.509Z,0.00
2024-04-06T00:48:03.480Z,0.00
2024-04-06T00:49:03.494Z,0.00
2024-04-06T00:50:03.454Z,0.00
2024-04-06T00:51:03.452Z,0.00
2024-04-06T00:52:03.448Z,0.00
2024-04-06T00:53:03.420Z,0.00
2024-04-06T00:54:03.410Z,0.00
2024-04-06T00:55:03.408Z,0.00
2024-04-06T00:56:03.388Z,0.00
2024-04-06T00:57:03.381Z,0.00
2024-04-06T00:58:03.393Z,0.00
2024-04-06T00:59:03.354Z,0.00
2024-04-06T01:00:03.374Z,0.00
2024-04-06T01:01:03.349Z,0.00
2024-04-06T01:02:05.543Z,0.00
2024-04-06T01:03:03.332Z,0.00
2024-04-06T01:04:03.311Z,0.00
2024-04-06T01:05:03.309Z,0.00
2024-04-06T01:06:03.292Z,0.00
2024-04-06T01:07:03.267Z,0.00
2024-04-06T01:08:03.260Z,0.00
2024-04-06T01:09:03.253Z,0.00
2024-04-06T01:10:03.269Z,0.00
2024-04-06T01:11:03.238Z,0.00
2024-04-06T01:12:03.220Z,0.00
2024-04-06T01:13:03.211Z,0.00
2024-04-06T01:14:03.215Z,0.00
2024-04-06T01:15:03.197Z,0.00
2024-04-06T01:16:03.669Z,0.00
2024-04-06T01:17:03.171Z,0.00
2024-04-06T01:18:03.152Z,0.00
2024-04-06T01:19:03.132Z,0.00
2024-04-06T01:20:03.139Z,0.00
2024-04-06T01:21:03.134Z,0.00
2024-04-06T01:22:03.109Z,0.00
2024-04-06T01:23:03.092Z,0.00
2024-04-06T01:24:03.096Z,0.00
2024-04-06T01:25:03.067Z,0.00
2024-04-06T01:26:03.089Z,0.00
2024-04-06T01:27:03.060Z,0.00
2024-04-06T01:28:03.035Z,0.00
2024-04-06T01:29:03.052Z,0.00
2024-04-06T01:30:03.042Z,0.00
2024-04-06T01:31:03.004Z,0.00
2024-04-06T01:32:03.025Z,0.00
2024-04-06T01:33:03.033Z,0.00
2024-04-06T01:34:02.963Z,0.00
2024-04-06T01:35:02.962Z,0.00
2024-04-06T01:36:02.949Z,0.00
2024-04-06T01:37:02.946Z,0.00
2024-04-06T01:38:02.932Z,0.00
2024-04-06T01:39:02.911Z,0.00
2024-04-06T01:40:02.900Z,0.00
2024-04-06T01:41:02.909Z,0.00
2024-04-06T01:42:03.076Z,0.00
2024-04-06T01:43:02.894Z,0.00
2024-04-06T01:44:02.852Z,0.00
2024-04-06T01:45:02.842Z,0.00
2024-04-06T01:46:02.849Z,0.00
2024-04-06T01:47:02.830Z,0.00
2024-04-06T01:48:02.829Z,0.00
2024-04-06T01:49:02.800Z,0.00
2024-04-06T01:50:02.844Z,0.00
2024-04-06T01:51:02.777Z,0.00
2024-04-06T01:52:02.769Z,0.00
2024-04-06T01:53:02.759Z,0.00
2024-04-06T01:54:02.762Z,0.00
2024-04-06T01:55:02.733Z,0.00
2024-04-06T01:56:02.727Z,0.00
2024-04-06T01:57:02.731Z,0.00
2024-04-06T01:58:02.709Z,0.00
2024-04-06T01:59:02.706Z,0.00
2024-04-06T02:00:02.692Z,0.00
2024-04-06T02:01:02.660Z,0.00
2024-04-06T02:02:02.690Z,0.00
2024-04-06T02:03:02.651Z,0.00
2024-04-06T02:04:02.646Z,0.00
2024-04-06T02:05:02.618Z,0.00
2024-04-06T02:06:02.607Z,0.00
2024-04-06T02:07:02.597Z,0.00
2024-04-06T02:08:02.602Z,0.00
2024-04-06T02:09:02.598Z,0.00
2024-04-06T02:10:02.599Z,0.00
2024-04-06T02:11:02.560Z,0.00
2024-04-06T02:12:02.556Z,0.00
2024-04-06T02:13:02.549Z,0.00
2024-04-06T02:14:02.549Z,0.00
2024-04-06T02:15:02.526Z,0.00
2024-04-06T02:16:02.521Z,0.00
2024-04-06T02:17:02.517Z,0.00
2024-04-06T02:18:02.479Z,0.00
2024-04-06T02:19:02.466Z,0.00
2024-04-06T02:20:02.473Z,0.00
2024-04-06T02:21:02.467Z,0.00
2024-04-06T02:22:02.442Z,0.00
2024-04-06T02:23:02.432Z,0.00
2024-04-06T02:24:02.428Z,0.00
2024-04-06T02:25:02.408Z,0.00
2024-04-06T02:26:02.401Z,0.00
2024-04-06T02:27:02.377Z,0.00
2024-04-06T02:28:02.381Z,0.00
2024-04-06T02:29:02.387Z,0.00
2024-04-06T02:30:02.369Z,0.00
2024-04-06T02:31:02.335Z,0.00
2024-04-06T02:32:02.335Z,0.00
2024-04-06T02:33:02.308Z,0.00
2024-04-06T02:34:02.319Z,0.00
2024-04-06T02:35:02.291Z,0.00
2024-04-06T02:36:02.299Z,0.00
2024-04-06T02:37:02.277Z,0.00
2024-04-06T02:38:02.270Z,0.00
2024-04-06T02:39:02.242Z,0.00
2024-04-06T02:40:02.237Z,0.00
2024-04-06T02:41:02.249Z,0.00
2024-04-06T02:42:02.236Z,0.00
2024-04-06T02:43:02.206Z,0.00
2024-04-06T02:44:02.189Z,0.00
2024-04-06T02:45:02.176Z,0.00
2024-04-06T02:46:02.163Z,0.00
2024-04-06T02:47:02.178Z,0.00
2024-04-06T02:48:02.150Z,0.00
2024-04-06T02:49:02.150Z,0.00
2024-04-06T02:50:02.180Z,0.00
2024-04-06T02:51:02.142Z,0.00
2024-04-06T02:52:02.096Z,0.00
2024-04-06T02:53:02.082Z,0.00
2024-04-06T02:54:02.089Z,0.00
2024-04-06T02:55:02.059Z,0.00
2024-04-06T02:56:02.054Z,0.00
2024-04-06T02:57:02.054Z,0.00
2024-04-06T02:58:02.030Z,0.00
2024-04-06T02:59:02.025Z,0.00
2024-04-06T03:00:02.037Z,0.00
2024-04-06T03:01:01.999Z,0.00
2024-04-06T03:02:01.997Z,0.00
2024-04-06T03:03:01.989Z,0.00
2024-04-06T03:04:01.961Z,0.00
2024-04-06T03:05:01.971Z,0.00
2024-04-06T03:06:01.964Z,0.00
2024-04-06T03:07:01.940Z,0.00
2024-04-06T03:08:01.917Z,0.00
2024-04-06T03:09:02.930Z,0.00
2024-04-06T03:10:01.921Z,0.00
2024-04-06T03:11:01.901Z,0.00
2024-04-06T03:12:01.873Z,0.00
2024-04-06T03:13:01.888Z,0.00
2024-04-06T03:14:01.854Z,0.00
2024-04-06T03:15:01.845Z,0.00
2024-04-06T03:16:01.850Z,0.00
2024-04-06T03:17:01.821Z,0.00
2024-04-06T03:18:01.803Z,0.00
2024-04-06T03:19:01.816Z,0.00
2024-04-06T03:20:01.816Z,0.00
2024-04-06T03:21:01.787Z,0.00
2024-04-06T03:22:01.786Z,0.00
2024-04-06T03:23:01.758Z,0.00
2024-04-06T03:24:01.735Z,0.00
2024-04-06T03:25:01.727Z,0.00
2024-04-06T03:26:01.747Z,0.00
2024-04-06T03:27:01.710Z,0.00
2024-04-06T03:28:01.721Z,0.00
2024-04-06T03:29:01.696Z,0.00
2024-04-06T03:30:01.705Z,0.00
2024-04-06T03:31:01.754Z,0.00
2024-04-06T03:32:01.665Z,0.00
2024-04-06T03:33:01.652Z,0.00
2024-04-06T03:34:01.626Z,0.00
2024-04-06T03:35:01.612Z,0.00
2024-04-06T03:36:01.616Z,0.00
2024-04-06T03:37:01.614Z,0.00
2024-04-06T03:38:01.601Z,0.00
2024-04-06T03:39:01.606Z,0.00
2024-04-06T03:40:01.576Z,0.00
2024-04-06T03:41:01.548Z,0.00
2024-04-06T03:42:01.565Z,0.00
2024-04-06T03:43:01.553Z,0.00
2024-04-06T03:44:01.521Z,0.00
2024-04-06T03:45:01.533Z,0.00
2024-04-06T03:46:01.494Z,0.00
2024-04-06T03:47:01.678Z,0.00
2024-04-06T03:48:01.472Z,0.00
2024-04-06T03:49:01.469Z,0.00
2024-04-06T03:50:01.450Z,0.00
2024-04-06T03:51:01.437Z,0.00
2024-04-06T03:52:01.441Z,0.00
2024-04-06T03:53:01.426Z,0.00
2024-04-06T03:54:01.416Z,0.00
2024-04-06T03:55:01.421Z,0.00
2024-04-06T03:56:01.391Z,0.00
2024-04-06T03:57:01.366Z,0.00
2024-04-06T03:58:01.388Z,0.00
2024-04-06T03:59:01.344Z,0.00
2024-04-06T04:00:01.348Z,0.00
2024-04-06T04:01:01.322Z,0.00
2024-04-06T04:02:01.314Z,0.00
2024-04-06T04:03:01.316Z,0.00
2024-04-06T04:04:01.308Z,0.00
2024-04-06T04:05:01.278Z,0.00
2024-04-06T04:06:01.280Z,0.00
2024-04-06T04:07:01.267Z,0.00
2024-04-06T04:08:01.306Z,0.00
2024-04-06T04:09:01.235Z,0.00
2024-04-06T04:10:01.258Z,0.00
2024-04-06T04:11:01.235Z,0.00
2024-04-06T04:12:01.205Z,0.00
2024-04-06T04:13:01.201Z,0.00
2024-04-06T04:14:01.192Z,0.00
2024-04-06T04:15:01.196Z,0.00
2024-04-06T04:16:01.167Z,0.00
2024-04-06T04:17:01.170Z,0.00
2024-04-06T04:18:01.144Z,0.00
2024-04-06T04:19:01.157Z,0.00
2024-04-06T04:20:01.139Z,0.00
2024-04-06T04:21:01.102Z,0.00
2024-04-06T04:22:01.103Z,0.00
2024-04-06T04:23:01.079Z,0.00
2024-04-06T04:24:01.099Z,0.00
2024-04-06T04:25:01.083Z,4.00
2024-04-06T04:26:01.091Z,4.00
2024-04-06T04:27:01.037Z,4.00
2024-04-06T04:28:01.036Z,4.00
2024-04-06T04:29:01.009Z,4.00
2024-04-06T04:30:01.010Z,0.00
2024-04-06T04:31:01.002Z,0.00
2024-04-06T04:32:01.002Z,4.00
2024-04-06T04:33:00.972Z,4.00
2024-04-06T04:34:00.959Z,4.00
2024-04-06T04:35:00.987Z,4.00
2024-04-06T04:36:08.543Z,8.00
2024-04-06T04:37:00.954Z,8.00
2024-04-06T04:38:00.951Z,12.00
2024-04-06T04:39:00.912Z,16.00
2024-04-06T04:40:00.929Z,12.00
2024-04-06T04:41:00.880Z,16.00
2024-04-06T04:42:00.878Z,16.00
2024-04-06T04:43:00.871Z,20.00
2024-04-06T04:44:06.663Z,24.00
2024-04-06T04:45:01.884Z,24.00
2024-04-06T04:46:00.827Z,28.00
2024-04-06T04:47:00.813Z,28.00
2024-04-06T04:48:00.820Z,32.00
2024-04-06T04:49:00.807Z,36.00
2024-04-06T04:50:00.796Z,36.00
2024-04-06T04:51:00.773Z,36.00
2024-04-06T04:52:00.766Z,40.00
2024-04-06T04:53:00.747Z,40.00
2024-04-06T04:54:00.735Z,36.00
2024-04-06T04:55:00.739Z,40.00
2024-04-06T04:56:00.732Z,40.00
2024-04-06T04:57:00.705Z,40.00
2024-04-06T04:58:00.704Z,48.00
2024-04-06T04:59:00.679Z,52.00
2024-04-06T05:00:00.692Z,56.00
2024-04-06T05:01:00.660Z,64.00
2024-04-06T05:02:00.659Z,72.00
2024-04-06T05:03:00.674Z,80.00
2024-04-06T05:04:00.640Z,88.00
2024-04-06T05:05:00.614Z,88.00
2024-04-06T05:06:00.612Z,92.00
2024-04-06T05:07:00.611Z,96.00
2024-04-06T05:08:00.583Z,96.00
2024-04-06T05:09:00.567Z,96.00
2024-04-06T05:10:00.557Z,96.00
2024-04-06T05:11:00.585Z,92.00
2024-04-06T05:12:00.580Z,92.00
2024-04-06T05:13:00.548Z,88.00
2024-04-06T05:14:00.534Z,92.00
2024-04-06T05:15:00.508Z,92.00
2024-04-06T05:16:00.499Z,100.00
2024-04-06T05:17:00.530Z,96.00
2024-04-06T05:18:00.487Z,92.00
2024-04-06T05:19:00.484Z,92.00
2024-04-06T05:20:00.471Z,88.00
2024-04-06T05:21:00.437Z,88.00
2024-04-06T05:22:00.445Z,88.00
2024-04-06T05:23:00.433Z,88.00
2024-04-06T05:24:00.403Z,88.00
2024-04-06T05:25:00.394Z,84.00
2024-04-06T05:26:00.402Z,80.00
2024-04-06T05:27:00.396Z,80.00
2024-04-06T05:28:00.368Z,76.00
2024-04-06T05:29:00.361Z,76.00
2024-04-06T05:30:00.351Z,72.00
2024-04-06T05:31:00.338Z,76.00
2024-04-06T05:32:00.318Z,76.00
2024-04-06T05:33:00.313Z,80.00
2024-04-06T05:34:00.290Z,88.00
2024-04-06T05:35:00.318Z,92.00
2024-04-06T05:36:02.759Z,96.00
2024-04-06T05:37:00.260Z,100.00
2024-04-06T05:38:00.270Z,108.00
2024-04-06T05:39:00.250Z,116.00
2024-04-06T05:40:00.247Z,120.00
2024-04-06T05:41:00.225Z,124.00
2024-04-06T05:42:00.196Z,132.00
2024-04-06T05:43:00.194Z,136.00
2024-04-06T05:44:00.177Z,136.00
2024-04-06T05:45:00.238Z,140.00
2024-04-06T05:46:00.165Z,144.00
2024-04-06T05:47:00.181Z,152.00
2024-04-06T05:48:00.154Z,160.00
2024-04-06T05:49:00.126Z,168.00
2024-04-06T05:50:00.178Z,176.00
2024-04-06T05:51:00.141Z,188.00
2024-04-06T05:52:00.099Z,196.00
2024-04-06T05:53:00.085Z,208.00
2024-04-06T05:54:00.071Z,224.00
2024-04-06T05:55:00.094Z,232.00
2024-04-06T05:56:00.045Z,244.00
2024-04-06T05:57:00.045Z,264.00
2024-04-06T05:58:00.038Z,288.00
2024-04-06T05:59:00.021Z,308.00
2024-04-06T06:00:00.000Z,336.00
2024-04-06T06:00:59.989Z,352.00
2024-04-06T06:01:59.987Z,368.00
2024-04-06T06:03:00.005Z,384.00
2024-04-06T06:03:59.961Z,416.00
2024-04-06T06:04:59.966Z,416.00
2024-04-06T06:05:59.963Z,420.00
2024-04-06T06:06:59.922Z,408.00
2024-04-06T06:07:59.927Z,412.00
2024-04-06T06:09:00.569Z,412.00
2024-04-06T06:09:59.899Z,412.00
2024-04-06T06:10:59.880Z,408.00
2024-04-06T06:11:59.886Z,392.00
2024-04-06T06:12:59.862Z,388.00
2024-04-06T06:13:59.847Z,368.00
2024-04-06T06:14:59.871Z,380.00
2024-04-06T06:15:59.831Z,500.00
2024-04-06T06:16:59.816Z,580.00
2024-04-06T06:17:59.826Z,656.00
2024-04-06T06:18:59.793Z,740.00
2024-04-06T06:19:59.783Z,608.00
2024-04-06T06:20:59.792Z,536.00
2024-04-06T06:21:59.780Z,588.00
2024-04-06T06:22:59.752Z,648.00
2024-04-06T06:23:59.738Z,588.00
2024-04-06T06:24:59.730Z,564.00
2024-04-06T06:25:59.720Z,540.00
2024-04-06T06:26:59.703Z,512.00
2024-04-06T06:27:59.700Z,484.00
2024-04-06T06:28:59.684Z,556.00
2024-04-06T06:29:59.668Z,516.00
2024-04-06T06:30:59.667Z,484.00
2024-04-06T06:31:59.658Z,500.00
2024-04-06T06:32:59.633Z,488.00
2024-04-06T06:33:59.627Z,488.00
2024-04-06T06:34:59.617Z,488.00
2024-04-06T06:37:59.643Z,524.00
2024-04-06T06:40:59.562Z,544.00
2024-04-06T06:41:59.539Z,548.00
2024-04-06T06:42:59.531Z,548.00
2024-04-06T06:43:59.516Z,556.00
2024-04-06T06:44:59.500Z,552.00
2024-04-06T06:45:59.504Z,556.00
2024-04-06T06:46:59.483Z,572.00
2024-04-06T06:47:59.465Z,580.00
2024-04-06T06:48:59.459Z,600.00
2024-04-06T06:49:59.455Z,608.00
2024-04-06T06:50:59.444Z,612.00
2024-04-06T06:51:59.443Z,628.00
2024-04-06T06:52:59.417Z,588.00
2024-04-06T06:53:59.403Z,604.00
2024-04-06T06:54:59.441Z,596.00
2024-04-06T06:55:59.380Z,608.00
2024-04-06T06:56:59.368Z,628.00
2024-04-06T06:57:59.366Z,656.00
2024-04-06T06:58:59.341Z,672.00
2024-04-06T07:00:59.330Z,668.00
2024-04-06T07:01:59.315Z,524.00
2024-04-06T07:02:59.323Z,528.00
2024-04-06T07:03:59.293Z,576.00
2024-04-06T07:04:59.283Z,628.00
2024-04-06T07:05:59.280Z,628.00
2024-04-06T07:07:59.241Z,668.00
2024-04-06T07:09:02.742Z,664.00
2024-04-06T07:09:59.238Z,656.00
2024-04-06T07:10:59.224Z,688.00
2024-04-06T07:11:59.207Z,556.00
2024-04-06T07:12:59.186Z,516.00
2024-04-06T07:13:59.179Z,468.00
2024-04-06T07:14:59.182Z,632.00
2024-04-06T07:15:59.153Z,696.00
2024-04-06T07:16:59.139Z,720.00
2024-04-06T07:17:59.147Z,844.00
2024-04-06T07:18:59.126Z,836.00
2024-04-06T07:19:59.108Z,844.00
2024-04-06T07:20:59.109Z,848.00
2024-04-06T07:21:59.115Z,688.00
2024-04-06T07:22:59.138Z,712.00
2024-04-06T07:23:59.098Z,828.00
2024-04-06T07:24:59.092Z,820.00
2024-04-06T07:25:59.194Z,820.00
2024-04-06T07:26:59.109Z,824.00
2024-04-06T07:27:59.111Z,832.00
2024-04-06T07:28:59.136Z,832.00
2024-04-06T07:29:59.104Z,828.00
2024-04-06T07:30:58.990Z,828.00
2024-04-06T07:31:58.981Z,828.00
2024-04-06T07:32:59.083Z,832.00
2024-04-06T07:33:58.968Z,832.00
2024-04-06T07:34:58.940Z,840.00
2024-04-06T07:35:58.935Z,848.00
2024-04-06T07:36:58.930Z,848.00
2024-04-06T07:37:58.912Z,856.00
2024-04-06T07:39:58.890Z,868.00
2024-04-06T07:40:58.884Z,808.00
2024-04-06T07:41:58.879Z,896.00
2024-04-06T07:42:58.853Z,896.00
2024-04-06T07:43:58.865Z,888.00
2024-04-06T07:44:58.837Z,828.00
2024-04-06T07:45:58.826Z,904.00
2024-04-06T07:46:58.831Z,900.00
2024-04-06T07:47:58.805Z,868.00
2024-04-06T07:48:58.787Z,740.00
2024-04-06T07:49:58.791Z,880.00
2024-04-06T07:50:58.771Z,872.00
2024-04-06T07:51:58.787Z,876.00
2024-04-06T07:52:58.743Z,892.00
2024-04-06T07:53:58.738Z,904.00
2024-04-06T07:54:58.722Z,636.00
2024-04-06T07:55:58.742Z,788.00
2024-04-06T07:56:58.719Z,936.00
2024-04-06T07:57:58.694Z,796.00
2024-04-06T07:58:58.675Z,532.00
2024-04-06T07:59:58.664Z,620.00
2024-04-06T08:00:58.662Z,944.00
2024-04-06T08:01:58.643Z,924.00
2024-04-06T08:02:58.635Z,912.00
2024-04-06T08:03:58.632Z,900.00
2024-04-06T08:04:58.612Z,876.00
2024-04-06T08:05:58.597Z,796.00
2024-04-06T08:06:58.603Z,864.00
2024-04-06T08:07:58.589Z,840.00
2024-04-06T08:08:58.568Z,856.00
2024-04-06T08:09:58.564Z,860.00
2024-04-06T08:10:58.550Z,852.00
2024-04-06T08:11:58.534Z,852.00
2024-04-06T08:12:58.539Z,844.00
2024-04-06T08:14:00.046Z,852.00
2024-04-06T08:14:58.518Z,840.00
2024-04-06T08:15:58.489Z,824.00
2024-04-06T08:16:58.543Z,844.00
2024-04-06T08:17:58.470Z,844.00
2024-04-06T08:18:58.456Z,852.00
2024-04-06T08:19:58.462Z,856.00
2024-04-06T08:20:58.463Z,868.00
2024-04-06T08:21:58.438Z,884.00
2024-04-06T08:22:58.456Z,688.00
2024-04-06T08:23:58.406Z,568.00
2024-04-06T08:24:58.398Z,704.00
2024-04-06T08:25:58.410Z,876.00
2024-04-06T08:26:58.405Z,860.00
2024-04-06T08:27:58.354Z,844.00
2024-04-06T08:28:58.349Z,852.00
2024-04-06T08:29:58.331Z,848.00
2024-04-06T08:30:58.341Z,848.00
2024-04-06T08:31:58.321Z,852.00
2024-04-06T08:33:01.040Z,856.00
2024-04-06T08:33:58.288Z,856.00
2024-04-06T08:34:58.278Z,868.00
2024-04-06T08:35:58.273Z,876.00
2024-04-06T08:36:58.268Z,880.00
2024-04-06T08:37:58.289Z,876.00
2024-04-06T08:38:58.240Z,888.00
2024-04-06T08:39:58.237Z,884.00
2024-04-06T08:40:58.230Z,888.00
2024-04-06T08:41:58.227Z,892.00
2024-04-06T08:42:58.226Z,900.00
2024-04-06T08:43:58.197Z,908.00
2024-04-06T08:44:58.167Z,900.00
2024-04-06T08:45:58.164Z,904.00
2024-04-06T08:46:58.152Z,908.00
2024-04-06T08:47:58.151Z,924.00
2024-04-06T08:48:58.126Z,924.00
2024-04-06T08:49:58.116Z,928.00
2024-04-06T08:50:58.112Z,920.00
2024-04-06T08:51:58.093Z,912.00
2024-04-06T08:52:58.082Z,920.00
2024-04-06T08:53:58.084Z,916.00
2024-04-06T08:54:58.064Z,900.00
2024-04-06T08:55:58.044Z,896.00
2024-04-06T08:56:58.037Z,896.00
2024-04-06T08:57:58.031Z,916.00
2024-04-06T08:58:58.026Z,904.00
2024-04-06T08:59:58.007Z,908.00
2024-04-06T09:00:57.990Z,912.00
2024-04-06T09:01:57.983Z,916.00
2024-04-06T09:02:57.969Z,896.00
2024-04-06T09:03:57.972Z,888.00
2024-04-06T09:04:57.951Z,932.00
2024-04-06T09:05:57.945Z,936.00
2024-04-06T09:06:57.933Z,936.00
2024-04-06T09:07:57.912Z,916.00
2024-04-06T09:08:57.910Z,904.00
2024-04-06T09:09:57.904Z,908.00
2024-04-06T09:10:57.884Z,884.00
2024-04-06T09:11:57.876Z,860.00
2024-04-06T09:12:57.873Z,824.00
2024-04-06T09:13:57.852Z,876.00
2024-04-06T09:14:57.860Z,884.00
2024-04-06T09:15:57.826Z,900.00
2024-04-06T09:16:57.838Z,884.00
2024-04-06T09:17:57.801Z,916.00
2024-04-06T09:18:57.798Z,896.00
2024-04-06T09:19:57.786Z,840.00
2024-04-06T09:20:57.809Z,868.00
2024-04-06T09:21:57.776Z,924.00
2024-04-06T09:22:57.763Z,920.00
2024-04-06T09:23:57.737Z,908.00
2024-04-06T09:24:57.816Z,872.00
2024-04-06T09:25:57.715Z,860.00
2024-04-06T09:26:57.708Z,872.00
2024-04-06T09:27:57.722Z,888.00
2024-04-06T09:28:57.683Z,832.00
2024-04-06T09:29:57.682Z,888.00
2024-04-06T09:30:57.664Z,904.00
2024-04-06T09:31:57.648Z,852.00
2024-04-06T09:32:57.640Z,816.00
2024-04-06T09:33:57.651Z,828.00
2024-04-06T09:34:57.620Z,864.00
2024-04-06T09:35:57.614Z,876.00
2024-04-06T09:36:57.611Z,840.00
2024-04-06T09:37:57.586Z,860.00
2024-04-06T09:38:57.582Z,868.00
2024-04-06T09:39:57.564Z,852.00
2024-04-06T09:40:57.551Z,824.00
2024-04-06T09:41:57.539Z,784.00
2024-04-06T09:42:57.556Z,792.00
2024-04-06T09:43:57.521Z,808.00
2024-04-06T09:44:57.512Z,804.00
2024-04-06T09:45:57.530Z,820.00
2024-04-06T09:46:57.512Z,824.00
2024-04-06T09:47:57.481Z,844.00
2024-04-06T09:48:57.477Z,840.00
2024-04-06T09:49:57.469Z,876.00
2024-04-06T09:50:57.441Z,860.00
2024-04-06T09:51:57.428Z,836.00
2024-04-06T09:52:57.416Z,808.00
2024-04-06T09:53:57.408Z,852.00
2024-04-06T09:54:57.414Z,892.00
2024-04-06T09:55:57.389Z,888.00
2024-04-06T09:56:57.382Z,892.00
2024-04-06T09:57:57.365Z,920.00
2024-04-06T09:58:57.350Z,920.00
2024-04-06T09:59:58.229Z,912.00
2024-04-06T10:00:57.351Z,908.00
2024-04-06T10:01:57.325Z,920.00
2024-04-06T10:02:57.312Z,912.00
2024-04-06T10:03:57.298Z,884.00
2024-04-06T10:04:57.288Z,864.00
2024-04-06T10:05:57.280Z,864.00
2024-04-06T10:06:57.279Z,896.00
2024-04-06T10:07:57.268Z,892.00
2024-04-06T10:08:57.241Z,900.00
2024-04-06T10:09:57.249Z,904.00
2024-04-06T10:10:57.232Z,904.00
2024-04-06T10:11:57.212Z,904.00
2024-04-06T10:12:57.204Z,888.00
2024-04-06T10:13:57.190Z,904.00
2024-04-06T10:14:57.179Z,908.00
2024-04-06T10:15:57.185Z,880.00
2024-04-06T10:16:57.187Z,876.00
2024-04-06T10:17:57.150Z,860.00
2024-04-06T10:18:57.140Z,912.00
2024-04-06T10:19:58.974Z,904.00
2024-04-06T10:20:57.120Z,940.00
2024-04-06T10:21:57.114Z,936.00
2024-04-06T10:22:57.102Z,936.00
2024-04-06T10:23:57.080Z,948.00
2024-04-06T10:24:57.081Z,964.00
2024-04-06T10:26:00.715Z,956.00
2024-04-06T10:26:57.049Z,956.00
2024-04-06T10:27:57.046Z,964.00
2024-04-06T10:28:57.045Z,956.00
2024-04-06T10:29:57.013Z,948.00
2024-04-06T10:30:57.006Z,948.00
2024-04-06T10:31:57.018Z,944.00
2024-04-06T10:32:56.982Z,940.00
2024-04-06T10:33:57.014Z,948.00
2024-04-06T10:34:56.959Z,952.00
2024-04-06T10:35:56.952Z,956.00
2024-04-06T10:36:59.105Z,944.00
2024-04-06T10:37:56.928Z,952.00
2024-04-06T10:38:56.919Z,936.00
2024-04-06T10:39:56.918Z,940.00
2024-04-06T10:40:56.898Z,948.00
2024-04-06T10:41:56.898Z,952.00
2024-04-06T10:42:56.872Z,944.00
2024-04-06T10:43:56.862Z,920.00
2024-04-06T10:44:56.852Z,904.00
2024-04-06T10:45:56.843Z,920.00
2024-04-06T10:46:56.856Z,916.00
2024-04-06T10:47:56.829Z,904.00
2024-04-06T10:48:56.815Z,904.00
2024-04-06T10:49:56.801Z,916.00
2024-04-06T10:50:56.784Z,924.00
2024-04-06T10:51:56.781Z,924.00
2024-04-06T10:52:56.778Z,904.00
2024-04-06T10:53:56.760Z,888.00
2024-04-06T10:54:56.743Z,892.00
2024-04-06T10:55:56.732Z,900.00
2024-04-06T10:56:56.735Z,916.00
2024-04-06T10:57:56.726Z,920.00
2024-04-06T10:58:56.703Z,912.00
2024-04-06T10:59:56.689Z,904.00
2024-04-06T11:00:56.675Z,916.00
2024-04-06T11:01:56.688Z,920.00
2024-04-06T11:02:56.670Z,920.00
2024-04-06T11:03:56.643Z,916.00
2024-04-06T11:04:56.634Z,892.00
2024-04-06T11:05:56.647Z,888.00
2024-04-06T11:06:56.625Z,908.00
2024-04-06T11:07:56.626Z,912.00
2024-04-06T11:08:56.594Z,908.00
2024-04-06T11:09:56.580Z,892.00
2024-04-06T11:10:56.569Z,904.00
2024-04-06T11:11:56.561Z,900.00
2024-04-06T11:12:56.546Z,924.00
2024-04-06T11:13:56.550Z,916.00
2024-04-06T11:14:56.523Z,912.00
2024-04-06T11:15:56.521Z,920.00
2024-04-06T11:16:56.504Z,924.00
2024-04-06T11:17:56.497Z,920.00
2024-04-06T11:18:56.501Z,912.00
2024-04-06T11:19:56.481Z,916.00
2024-04-06T11:20:56.471Z,924.00
2024-04-06T11:21:56.493Z,920.00
2024-04-06T11:22:56.434Z,928.00
2024-04-06T11:23:56.430Z,928.00
2024-04-06T11:24:56.420Z,924.00
2024-04-06T11:25:56.432Z,928.00
2024-04-06T11:26:56.398Z,728.00
2024-04-06T11:27:56.383Z,904.00
2024-04-06T11:28:56.387Z,924.00
2024-04-06T11:29:56.367Z,916.00
2024-04-06T11:30:56.358Z,916.00
2024-04-06T11:31:56.346Z,904.00
2024-04-06T11:32:56.335Z,908.00
2024-04-06T11:33:56.332Z,908.00
2024-04-06T11:34:56.305Z,912.00
2024-04-06T11:35:56.296Z,916.00
2024-04-06T11:36:56.303Z,920.00
2024-04-06T11:37:56.301Z,936.00
2024-04-06T11:38:56.281Z,948.00
2024-04-06T11:39:56.252Z,952.00
2024-04-06T11:40:56.240Z,960.00
2024-04-06T11:41:56.230Z,972.00
2024-04-06T11:42:56.220Z,980.00
2024-04-06T11:43:56.222Z,992.00
2024-04-06T11:44:56.211Z,1004.00
2024-04-06T11:45:56.199Z,1004.00
2024-04-06T11:46:56.200Z,988.00
2024-04-06T11:47:56.168Z,956.00
2024-04-06T11:48:56.153Z,900.00
2024-04-06T11:49:56.168Z,816.00
2024-04-06T11:50:56.165Z,804.00
2024-04-06T11:51:56.122Z,840.00
2024-04-06T11:52:56.113Z,788.00
2024-04-06T11:53:56.125Z,732.00
2024-04-06T11:54:56.127Z,780.00
2024-04-06T11:55:56.119Z,656.00
2024-04-06T11:56:56.077Z,764.00
2024-04-06T11:57:56.059Z,736.00
2024-04-06T11:58:56.072Z,840.00
2024-04-06T11:59:56.036Z,808.00
2024-04-06T12:00:56.043Z,800.00
2024-04-06T12:01:56.044Z,968.00
2024-04-06T12:02:56.009Z,1004.00
2024-04-06T12:03:55.996Z,1000.00
2024-04-06T12:04:55.984Z,1012.00
2024-04-06T12:05:59.065Z,940.00
2024-04-06T12:06:56.036Z,1008.00
2024-04-06T12:07:55.968Z,968.00
2024-04-06T12:08:55.937Z,944.00
2024-04-06T12:09:55.974Z,912.00
2024-04-06T12:10:55.922Z,932.00
2024-04-06T12:11:58.941Z,928.00
2024-04-06T12:12:55.926Z,864.00
2024-04-06T12:13:55.921Z,920.00
2024-04-06T12:14:55.905Z,916.00
2024-04-06T12:15:55.859Z,912.00
2024-04-06T12:16:55.881Z,888.00
2024-04-06T12:17:56.286Z,888.00
2024-04-06T12:18:55.833Z,852.00
2024-04-06T12:19:55.844Z,848.00
2024-04-06T12:20:55.821Z,856.00
2024-04-06T12:21:55.797Z,844.00
2024-04-06T12:22:55.788Z,844.00
2024-04-06T12:23:55.772Z,836.00
2024-04-06T12:24:55.790Z,828.00
2024-04-06T12:25:55.773Z,816.00
2024-04-06T12:26:55.744Z,800.00
2024-04-06T12:27:55.728Z,808.00
2024-04-06T12:28:55.722Z,796.00
2024-04-06T12:29:55.717Z,784.00
2024-04-06T12:30:55.703Z,776.00
2024-04-06T12:31:55.695Z,772.00
2024-04-06T12:32:55.685Z,768.00
2024-04-06T12:33:55.774Z,764.00
2024-04-06T12:34:55.681Z,768.00
2024-04-06T12:35:55.642Z,764.00
2024-04-06T12:36:55.664Z,764.00
2024-04-06T12:37:55.641Z,764.00
2024-04-06T12:38:55.617Z,768.00
2024-04-06T12:39:55.601Z,760.00
2024-04-06T12:40:55.603Z,528.00
2024-04-06T12:41:55.589Z,476.00
2024-04-06T12:42:55.571Z,472.00
2024-04-06T12:43:55.567Z,460.00
2024-04-06T12:44:55.542Z,644.00
2024-04-06T12:45:55.539Z,532.00
2024-04-06T12:46:55.515Z,744.00
2024-04-06T12:47:55.526Z,656.00
2024-04-06T12:48:55.494Z,540.00
2024-04-06T12:49:55.506Z,608.00
2024-04-06T12:50:55.480Z,652.00
2024-04-06T12:51:55.467Z,780.00
2024-04-06T12:52:55.478Z,564.00
2024-04-06T12:53:55.530Z,684.00